Our Hubs

Gdansk im. Lecha Walesy
EPGD 272300Z 06004KT 020V110 CAVOK 16/15 Q1025
Warszawa im. Chopina
EPWA 272300Z 07005KT CAVOK 17/11 Q1023 NOSIG
  • EPWAAirport ICAO
  • Damian BelicaHUB Manager
  • SP-GLO , SP-OSO , SP-JOP , SP-WAW , LC-LXY , SP-OSPAircraft Based
  • ViewStats
Katowice Pyrzowice
EPKT 272300Z VRB01KT CAVOK 17/11 Q1022
  • EPKTAirport ICAO
  • Rafal PiotrowskiHUB Manager
  • SP-GSA , SP-WOD , SP-ASA , SP-MVM , SP-JJJAircraft Based
  • ViewStats
Dublin
EIDW 272300Z 34002KT 9999 FEW016 BKN060 BKN250 13/12 Q1018 NOSIG